• Join FlightAware (Why Join?)
  • Login
  • US Flag 
02:31AM EST


 

Airport Tracker/Info


-or-


 

Live Flight TrackerFlight Track Log ✈ UPS2977 ✈ 21-Aug-2014 ✈ KGEG - KDFW

Flight Track Log - Related Links

Times and Time Zones

All times are in EDT time to prevent confusion due to time zone crossing. See the UPS2977 flight status page for this flight to view local times or setup timezone preferences in your user account.

Time Position Orientation Groundspeed Altitude Reporting Facility
EDT Latitude Longitude Course Direction KTS MPH feet Rate Location/Type
10:36AM 47.6036 -117.5594 186° South 189 217 3,800  Level Salt Lake Center
10:37AM 47.5556 -117.5667 186° South 233 268 6,000 2,758 Climbing Salt Lake Center
10:38AM 47.5311 -117.4608 109° East 259 298 9,500 2,952 Climbing Salt Lake Center
10:39AM 47.5125 -117.3369 102° East 301 346 12,100 2,613 Climbing Salt Lake Center
10:40AM 47.5114 -117.1519 90° East 372 428 14,900 2,829 Climbing Salt Lake Center
10:41AM 47.5181 -116.9842 87° East 411 473 17,900 2,705 Climbing Seattle Center
10:42AM 47.5178 -116.8114 90° East 433 498 20,400 2,341 Climbing Seattle Center
10:43AM 47.4894 -116.6358 103° East 454 522 22,700 2,098 Climbing Seattle Center
10:44AM 47.4108 -116.4825 127° Southeast 471 542 24,700 1,967 Climbing Seattle Center
10:45AM 47.3289 -116.3233 127° Southeast 487 560 26,700 1,918 Climbing Seattle Center
10:46AM 47.2453 -116.1611 127° Southeast 497 572 28,600 2,115 Climbing Seattle Center
10:47AM 47.1442 -115.9664 127° Southeast 498 573 31,000 2,164 Climbing Seattle Center
10:48AM 47.0597 -115.8044 127° Southeast 499 574 33,000 1,869 Climbing Seattle Center
10:49AM 46.9769 -115.6464 127° Southeast 493 567 34,800 1,574 Climbing Seattle Center
10:50AM 46.8942 -115.4900 128° Southeast 489 563 36,200 1,082 Climbing Seattle Center
10:52AM 46.8139 -115.3386 128° Southeast 488 562 37,000 390 Climbing Seattle Center
10:53AM 46.7308 -115.1833 128° Southeast 488 562 37,000  Level Seattle Center
10:54AM 46.6400 -115.0136 128° Southeast 486 559 37,000  Level Seattle Center
10:55AM 46.5658 -114.8761 128° Southeast 484 557 37,000  Level Seattle Center
10:56AM 46.4822 -114.7231 128° Southeast 485 558 37,000  Level Seattle Center
10:57AM 46.3822 -114.5392 128° Southeast 486 559 37,000 -49 Level Seattle Center
10:58AM 46.2992 -114.3883 129° Southeast 484 557 36,900  Descending Seattle Center
10:59AM 46.2156 -114.2375 129° Southeast 483 556 37,000 49 Climbing Seattle Center
11:00AM 46.1322 -114.0864 128° Southeast 484 557 37,000  Level Seattle Center
11:01AM 46.0489 -113.9378 129° Southeast 481 554 37,000 -43 Level Seattle Center
11:02AM 45.9325 -113.7350 129° Southeast 476 548 36,900  Descending Salt Lake Center
11:03AM 45.8439 -113.5764 129° Southeast 476 548 37,000 48 Climbing Salt Lake Center
11:04AM 45.7581 -113.4272 129° Southeast 476 548 37,000  Level Salt Lake Center
11:05AM 45.6725 -113.2786 129° Southeast 476 548 37,000  Level Salt Lake Center
11:06AM 45.5833 -113.1211 129° Southeast 471 542 37,000  Level Salt Lake Center
11:07AM 45.4964 -112.9719 130° Southeast 476 548 37,000  Level Salt Lake Center
11:08AM 45.4114 -112.8258 130° Southeast 477 549 37,000  Level Salt Lake Center
11:09AM 45.3250 -112.6781 130° Southeast 477 549 37,000  Level Salt Lake Center
11:10AM 45.2394 -112.5319 130° Southeast 477 549 37,000  Level Salt Lake Center
11:11AM 45.1428 -112.3856 133° Southeast 468 539 37,000  Level Salt Lake Center
11:12AM 45.0525 -112.2497 133° Southeast 468 539 37,000  Level Salt Lake Center
11:13AM 44.9628 -112.1142 133° Southeast 467 537 37,000  Level Salt Lake Center
11:14AM 44.8733 -111.9797 133° Southeast 465 535 37,000  Level Salt Lake Center
11:15AM 44.7756 -111.8331 133° Southeast 467 537 37,000  Level Salt Lake Center
11:17AM 44.6836 -111.6975 134° Southeast 470 541 37,000  Level Salt Lake Center
11:18AM 44.5925 -111.5642 134° Southeast 470 541 37,000  Level Salt Lake Center
11:19AM 44.5011 -111.4292 133° Southeast 470 541 37,000  Level Salt Lake Center
11:20AM 44.4100 -111.2972 134° Southeast 469 540 37,000  Level Salt Lake Center
11:21AM 44.3114 -111.1525 134° Southeast 470 541 37,000  Level Salt Lake Center
11:22AM 44.2206 -111.0228 134° Southeast 461 531 37,000  Level Salt Lake Center
11:23AM 44.1303 -110.8908 134° Southeast 462 532 37,000  Level Salt Lake Center
11:24AM 44.0358 -110.7578 135° Southeast 463 533 37,000  Level Salt Lake Center
11:25AM 43.9600 -110.6453 133° Southeast 459 528 37,000  Level Salt Lake Center
11:26AM 43.8519 -110.4911 134° Southeast 458 527 37,000  Level Salt Lake Center
11:27AM 43.7606 -110.3625 135° Southeast 460 529 37,000  Level Salt Lake Center
11:28AM 43.6700 -110.2361 135° Southeast 459 528 37,000  Level Salt Lake Center
11:29AM 43.5803 -110.1122 135° Southeast 458 527 37,000  Level Salt Lake Center
11:30AM 43.4942 -109.9892 134° Southeast 458 527 37,000  Level Salt Lake Center
11:31AM 43.4069 -109.8431 129° Southeast 458 527 37,000  Level Salt Lake Center
11:32AM 43.3264 -109.7069 129° Southeast 459 528 37,000  Level Salt Lake Center
11:33AM 43.2450 -109.5700 129° Southeast 461 531 37,000  Level Salt Lake Center
11:34AM 43.1494 -109.4092 129° Southeast 460 529 37,000  Level Salt Lake Center
11:35AM 43.0706 -109.2775 129° Southeast 456 525 37,000  Level Salt Lake Center
11:36AM 42.9883 -109.1417 130° Southeast 457 526 37,000  Level Salt Lake Center
11:37AM 42.8986 -108.9869 128° Southeast 470 541 37,000  Level Salt Lake Center
11:38AM 42.8194 -108.8567 130° Southeast 470 541 37,000  Level Salt Lake Center
11:39AM 42.7283 -108.7078 130° Southeast 464 534 37,000  Level Salt Lake Center
11:40AM 42.6511 -108.5808 130° Southeast 457 526 37,000  Level Salt Lake Center
11:41AM 42.5731 -108.4542 130° Southeast 457 526 37,000  Level Salt Lake Center
11:42AM 42.4814 -108.3056 130° Southeast 457 526 37,000  Level Salt Lake Center
11:43AM 42.4036 -108.1803 130° Southeast 457 526 37,000  Level Salt Lake Center
11:50AM 41.8733 -107.3374 131° Southeast 456 525 37,000  Level FlightAware ADS-B (KANK)
11:50AM 41.8347 -107.2771 131° Southeast 457 526 37,000  Level FlightAware ADS-B (KANK)
11:51AM 41.7609 -107.1620 131° Southeast 459 528 37,000  Level FlightAware ADS-B (KANK)
11:52AM 41.7070 -107.0780 131° Southeast 456 525 37,000  Level FlightAware ADS-B (KANK)
11:52AM 41.6684 -107.0181 131° Southeast 456 525 37,000  Level FlightAware ADS-B (KEIK)
11:53AM 41.6038 -106.9186 131° Southeast 459 528 37,000  Level FlightAware ADS-B (KEIK)
11:54AM 41.5412 -106.8221 131° Southeast 461 531 37,000  Level FlightAware ADS-B (KANK)
11:54AM 41.4923 -106.7468 131° Southeast 462 532 37,000  Level FlightAware ADS-B (KANK)
11:55AM 41.4364 -106.6610 131° Southeast 461 531 37,000  Level FlightAware ADS-B (KANK)
11:56AM 41.3783 -106.5721 131° Southeast 459 528 37,000  Level FlightAware ADS-B (KANK)
11:57AM 41.3067 -106.4630 131° Southeast 459 528 37,000  Level FlightAware ADS-B (KEIK)
11:57AM 41.2569 -106.3873 131° Southeast 456 525 37,000  Level FlightAware ADS-B (KEIK)
11:58AM 41.2149 -106.3237 131° Southeast 454 522 37,000  Level FlightAware ADS-B (KANK)
11:59AM 41.1422 -106.2141 131° Southeast 463 533 37,000  Level FlightAware ADS-B (KANK)
11:59AM 41.0848 -106.1277 131° Southeast 471 542 37,000  Level FlightAware ADS-B (KANK)
12:00PM 41.0239 -106.0357 131° Southeast 472 543 37,000  Level FlightAware ADS-B (KANK)
12:01PM 40.9681 -105.9608 137° Southeast 462 532 37,000  Level FlightAware ADS-B (KANK)
12:01PM 40.8926 -105.8661 136° Southeast 458 527 37,000  Level FlightAware ADS-B (KEIK)
12:02PM 40.8321 -105.7905 137° Southeast 460 529 37,000  Level FlightAware ADS-B (KANK)
12:03PM 40.7708 -105.7142 137° Southeast 455 524 37,000  Level FlightAware ADS-B (KANK)
12:03PM 40.7050 -105.6328 137° Southeast 458 527 37,000  Level FlightAware ADS-B (KANK)
12:04PM 40.6381 -105.5502 137° Southeast 457 526 37,000  Level FlightAware ADS-B (KANK)
12:05PM 40.5943 -105.4961 137° Southeast 455 524 37,000  Level FlightAware ADS-B (KEIK)
12:05PM 40.5390 -105.4280 137° Southeast 456 525 37,000  Level FlightAware ADS-B (KANK)
12:06PM 40.4786 -105.3540 137° Southeast 454 522 37,000  Level FlightAware ADS-B (KANK)
12:07PM 40.4077 -105.2673 137° Southeast 461 531 37,000  Level FlightAware ADS-B (KANK)
12:07PM 40.3468 -105.1930 137° Southeast 455 524 37,000  Level FlightAware ADS-B (KEIK)
12:08PM 40.2827 -105.1150 137° Southeast 453 521 37,000  Level FlightAware ADS-B (KANK)
12:09PM 40.2331 -105.0549 137° Southeast 455 524 37,000  Level FlightAware ADS-B (KANK)
12:09PM 40.1779 -104.9880 137° Southeast 455 524 37,000  Level FlightAware ADS-B (KEIK)
12:10PM 40.1164 -104.9138 137° Southeast 457 526 37,000  Level FlightAware ADS-B (KANK)
12:10PM 40.0529 -104.8372 137° Southeast 458 527 37,000  Level FlightAware ADS-B (KANK)
12:11PM 39.9874 -104.7584 137° Southeast 460 529 37,000  Level FlightAware ADS-B (KANK)
12:12PM 39.9201 -104.6778 137° Southeast 464 534 37,000  Level FlightAware ADS-B (KANK)
12:12PM 39.8711 -104.6192 137° Southeast 466 536 37,000  Level FlightAware ADS-B (KEIK)
12:13PM 39.8240 -104.5630 136° Southeast 448 516 37,000  Level FlightAware ADS-B (KFLY)
12:14PM 39.7516 -104.4769 137° Southeast 466 536 37,000  Level FlightAware ADS-B (KANK)
12:14PM 39.6875 -104.4007 138° Southeast 466 536 37,000  Level FlightAware ADS-B (KANK)
12:15PM 39.6282 -104.3306 138° Southeast 466 536 37,000  Level FlightAware ADS-B (KANK)
12:16PM 39.5947 -104.2910 138° Southeast 465 535 37,000  Level FlightAware ADS-B (KFLY)
12:16PM 39.5181 -104.2007 138° Southeast 468 539 37,000  Level FlightAware ADS-B (KEIK)
12:17PM 39.4879 -104.1652 138° Southeast 470 541 37,000  Level FlightAware ADS-B (KFLY)
12:17PM 39.4230 -104.0889 138° Southeast 473 544 37,000  Level FlightAware ADS-B (KFLY)
12:18PM 39.3515 -104.0051 138° Southeast 472 543 37,000  Level FlightAware ADS-B (KANK)
12:19PM 39.2976 -103.9423 138° Southeast 473 544 37,000  Level FlightAware ADS-B (KFLY)
12:19PM 39.2159 -103.8472 138° Southeast 474 545 37,000  Level FlightAware ADS-B (KANK)
12:20PM 39.1488 -103.7690 138° Southeast 474 545 37,000  Level FlightAware ADS-B (KANK)
12:21PM 39.0669 -103.6743 138° Southeast 473 544 37,000  Level FlightAware ADS-B (KFLY)
12:22PM 38.9863 -103.5814 138° Southeast 475 547 37,000  Level FlightAware ADS-B (KFLY)
12:22PM 38.9469 -103.5360 138° Southeast 472 543 37,000  Level FlightAware ADS-B (KFLY)
12:23PM 38.8477 -103.4221 138° Southeast 470 541 37,000  Level FlightAware ADS-B (KEIK)
12:24PM 38.7852 -103.3506 138° Southeast 472 543 37,000  Level FlightAware ADS-B (KEIK)
12:24PM 38.7289 -103.2863 138° Southeast 471 542 37,000  Level FlightAware ADS-B (KEIK)
12:25PM 38.6564 -103.2037 138° Southeast 470 541 37,000  Level FlightAware ADS-B (KEIK)
12:26PM 38.5768 -103.1133 138° Southeast 468 539 37,000  Level FlightAware ADS-B (KANK)
12:26PM 38.5156 -103.0440 138° Southeast 465 535 37,000  Level FlightAware ADS-B (KEIK)
12:27PM 38.4625 -102.9841 139° Southeast 468 539 37,000  Level FlightAware ADS-B (KANK)
12:27PM 38.4172 -102.9330 138° Southeast 468 539 37,000  Level FlightAware ADS-B (KEIK)
12:28PM 38.3588 -102.8672 139° Southeast 468 539 37,000  Level FlightAware ADS-B (KEIK)
12:29PM 38.2936 -102.7940 139° Southeast 468 539 37,000  Level FlightAware ADS-B (KANK)
12:29PM 38.2421 -102.7364 139° Southeast 469 540 37,000  Level FlightAware ADS-B (KANK)
12:30PM 38.1852 -102.6729 139° Southeast 471 542 37,000  Level FlightAware ADS-B (KEIK)
12:31PM 38.1117 -102.5959 141° Southeast 470 541 37,000  Level FlightAware ADS-B (KANK)
12:32PM 38.0054 -102.4942 151° Southeast 462 532 37,000  Level FlightAware ADS-B (KANK)
12:32PM 37.9498 -102.4554 151° Southeast 460 529 37,000  Level FlightAware ADS-B (KANK)
12:33PM 37.8609 -102.3930 151° Southeast 461 531 37,000  Level FlightAware ADS-B (KANK)
12:34PM 37.8237 -102.3670 151° Southeast 462 532 37,000  Level FlightAware ADS-B (KANK)
12:37PM 37.3789 -102.0592 147° Southeast 469 540 37,000  Level FlightAware ADS-B (KANK)
12:38PM 37.2998 -101.9777 139° Southeast 474 545 37,000  Level FlightAware ADS-B (KANK)
12:39PM 37.2014 -101.8708 139° Southeast 476 548 37,000  Level FlightAware ADS-B (KANK)
12:43PM 36.7542 -101.3927 140° Southeast 477 549 37,000  Level FlightAware ADS-B (KANK)
12:44PM 36.6859 -101.3203 140° Southeast 476 548 37,000  Level FlightAware ADS-B (KANK)
12:45PM 36.5683 -101.1961 140° Southeast 474 545 37,000  Level Albuquerque Center
12:46PM 36.4722 -101.0953 140° Southeast 473 544 37,000  Level Albuquerque Center
12:47PM 36.3550 -100.9725 140° Southeast 473 544 37,000  Level Kansas City Center
12:48PM 36.2536 -100.8667 140° Southeast 474 545 37,000  Level Kansas City Center
12:49PM 36.1519 -100.7611 140° Southeast 475 547 37,000  Level Kansas City Center
12:50PM 36.0458 -100.6511 140° Southeast 476 548 37,000  Level Albuquerque Center
12:51PM 35.9450 -100.5469 140° Southeast 475 547 37,000  Level Albuquerque Center
12:54PM 35.7447 -100.3414 140° Southeast 470 541 37,000  Level Albuquerque Center
12:55PM 35.6236 -100.2178 140° Southeast 471 542 37,000  Level Fort Worth Center
12:56PM 35.5425 -100.1353 140° Southeast 472 543 37,000  Level Albuquerque Center
12:57PM 35.4211 -100.0122 140° Southeast 472 543 37,000  Level Albuquerque Center
12:58PM 35.3197 -99.9097 140° Southeast 473 544 37,000  Level Albuquerque Center
12:59PM 35.2178 -99.8072 141° Southeast 474 545 37,000  Level Albuquerque Center
01:00PM 35.1161 -99.7050 141° Southeast 474 545 37,000  Level Albuquerque Center
01:01PM 35.0147 -99.6036 141° Southeast 472 543 37,000  Level Albuquerque Center
01:02PM 34.8942 -99.4833 141° Southeast 470 541 37,000 -138 Level Albuquerque Center
01:03PM 34.7925 -99.3825 141° Southeast 470 541 36,700 -554 Descending Fort Worth Center
01:04PM 34.6900 -99.2811 141° Southeast 472 543 35,800 -1,016 Descending Fort Worth Center
01:05PM 34.5669 -99.1594 141° Southeast 474 545 34,600 -1,152 Descending Fort Worth Center
01:06PM 34.4644 -99.0586 141° Southeast 474 545 33,400 -1,248 Descending Fort Worth Center
01:07PM 34.3631 -98.9594 141° Southeast 469 540 32,000 -1,355 Descending Fort Worth Center
01:08PM 34.2644 -98.8631 141° Southeast 451 519 30,600 -1,538 Descending Fort Worth Center
01:14PM 33.7755 -98.2299 124° Southeast 388 447 20,800 -1,743 Descending FlightAware ADS-B
01:17PM 33.6433 -98.0043 125° Southeast 366 421 15,900 -2,259 Descending FlightAware ADS-B
01:17PM 33.6058 -97.9403 125° Southeast 358 412 14,400 -1,960 Descending FlightAware ADS-B
01:18PM 33.5500 -97.8461 124° Southeast 304 350 12,600 -1,663 Descending FlightAware ADS-B
01:19PM 33.5157 -97.7966 135° Southeast 297 342 11,600 -1,291 Descending FlightAware ADS-B
01:20PM 33.4775 -97.7515 135° Southeast 291 335 10,900 -525 Descending FlightAware ADS-B
01:20PM 33.4384 -97.7058 135° Southeast 291 335 10,900  Level FlightAware ADS-B
01:21PM 33.4003 -97.6609 135° Southeast 291 335 10,900 -732 Level FlightAware ADS-B
01:22PM 33.3599 -97.6134 135° Southeast 287 330 9,900 -1,377 Descending FlightAware ADS-B
01:22PM 33.3422 -97.5924 135° Southeast 287 330 9,500 -1,538 Descending FlightAware ADS-B
01:22PM 33.3217 -97.5684 135° Southeast 286 329 8,900 -1,463 Descending FlightAware ADS-B
01:23PM 33.3037 -97.5472 135° Southeast 286 329 8,500 -1,317 Descending FlightAware ADS-B
01:23PM 33.2847 -97.5249 135° Southeast 285 328 8,000 -1,538 Descending FlightAware ADS-B
01:23PM 33.2669 -97.5039 135° Southeast 282 325 7,500 -1,538 Descending FlightAware ADS-B
01:24PM 33.2531 -97.4780 110° East 289 333 7,000 -1,500 Descending FlightAware ADS-B
01:24PM 33.2448 -97.4465 106° East 289 333 6,500 -1,463 Descending FlightAware ADS-B
01:24PM 33.2366 -97.4153 107° East 287 330 6,000 -1,538 Descending FlightAware ADS-B
01:25PM 33.2300 -97.3908 107° East 289 333 5,500 -1,385 Descending FlightAware ADS-B
01:25PM 33.2209 -97.3556 107° East 286 329 5,100 -857 Descending FlightAware ADS-B
01:25PM 33.2129 -97.3237 106° East 285 328 4,900 -300 Descending FlightAware ADS-B
01:26PM 33.2061 -97.2956 106° East 277 319 4,900  Level FlightAware ADS-B
01:26PM 33.1987 -97.2652 105° East 276 318 4,900  Level FlightAware ADS-B
01:26PM 33.1919 -97.2370 106° East 275 316 4,900  Level FlightAware ADS-B
01:27PM 33.1850 -97.2087 106° East 275 316 4,900  Level FlightAware ADS-B
01:27PM 33.1763 -97.1733 106° East 252 290 4,900 -146 Level FlightAware ADS-B
01:27PM 33.1715 -97.1529 104° East 241 277 4,800 -833 Descending FlightAware ADS-B
01:28PM 33.1658 -97.1281 105° East 237 273 4,400 -1,500 Descending FlightAware ADS-B
01:28PM 33.1534 -97.1074 144° Southeast 222 255 3,800 -1,650 Descending FlightAware ADS-B
01:28PM 33.1360 -97.0954 151° Southeast 215 247 3,300 -1,200 Descending FlightAware ADS-B
01:29PM 33.1189 -97.0843 150° Southeast 202 232 3,000 -585 Descending FlightAware ADS-B
01:29PM 33.1027 -97.0737 151° Southeast 183 211 2,900 -150 Descending FlightAware ADS-B
01:29PM 33.0895 -97.0655 155° Southeast 170 196 2,900  Level FlightAware ADS-B
01:30PM 33.0745 -97.0594 161° South 167 192 2,900  Level FlightAware ADS-B
01:30PM 33.0592 -97.0540 171° South 168 193 2,900 -150 Level FlightAware ADS-B
01:30PM 33.0437 -97.0540 182° South 167 192 2,800 -450 Descending FlightAware ADS-B
01:31PM 33.0284 -97.0543 360° North 168 193 2,600 -750 Descending FlightAware ADS-B
01:31PM 33.0130 -97.0541 179° South 155 178 2,300 -787 Descending FlightAware ADS-B
01:32PM 32.9859 -97.0542 180° South 125 144 1,800 -686 Descending FlightAware ADS-B
01:32PM 32.9701 -97.0544 181° South 120 138 1,500 -643 Descending FlightAware ADS-B
01:33PM 32.9540 -97.0543 179° South 112 129 1,200 -558 Descending FlightAware ADS-B
01:33PM 32.9461 -97.0545 181° South 117 135 1,100 -375 Descending FlightAware ADS-B
01:33PM 32.9374 -97.0545 180° South 120 138 1,000 -243 Descending FlightAware ADS-B
01:34PM 32.9011 -97.0317 180° South 173 199 800 -207 Descending Fort Worth Center
01:36PM 32.8968 -97.0380 140° Southeast  Level Estimated